Amelia, Ohio
Current Conditions -  °F | °C
As of 10:53 AM on Thursday 23 Oct 2014 (Local Time) from KLUK Reporting Station
Clear Clear  
Wind Chill: 50°   Ceiling: Unl
Heat Index: 50°   Visibility: 9mi
Dew Point: 42°   Wind: 3mph
Humidity: 74%   Direction: 80°E
Pressure: 30.27"   Gusts: NA
Location:  39.03°N, 84.22°W
Report Text: KLUK 231453Z 08003KT 9SM CLR 10/06 A3027 RMK AO2 SLP252 T01000056 50002
Loading
Personal Weather Stations






























Interactive Weather Map
Tropical Storm Tracking
New forecast layout! Learn more

10-Day Weather Forecast

Advertisements
Track Severe Weather on mobile